sensor_id;sensor_type;location;lat;lon;timestamp;P1;durP1;ratioP1;P2;durP2;ratioP2
18796;SDS011;9526;52.612;13.300;2022-10-16T00:01:48;6.15;;;3.90;;
18796;SDS011;9526;52.612;13.300;2022-10-16T00:04:11;9.95;;;4.00;;
18796;SDS011;9526;52.612;13.300;2022-10-16T00:06:37;5.78;;;3.83;;
18796;SDS011;9526;52.612;13.300;2022-10-16T00:09:01;4.72;;;4.00;;
18796;SDS011;9526;52.612;13.300;2022-10-16T00:11:25;4.53;;;3.60;;
18796;SDS011;9526;52.612;13.300;2022-10-16T00:13:51;4.75;;;4.07;;
18796;SDS011;9526;52.612;13.300;2022-10-16T00:16:18;5.05;;;3.60;;
18796;SDS011;9526;52.612;13.300;2022-10-16T00:18:42;4.13;;;3.33;;
18796;SDS011;9526;52.612;13.300;2022-10-16T00:21:07;4.65;;;3.70;;
18796;SDS011;9526;52.612;13.300;2022-10-16T00:23:34;5.18;;;3.30;;
18796;SDS011;9526;52.612;13.300;2022-10-16T00:25:58;3.58;;;2.78;;
18796;SDS011;9526;52.612;13.300;2022-10-16T00:28:24;3.78;;;3.10;;
18796;SDS011;9526;52.612;13.300;2022-10-16T00:30:48;5.15;;;3.05;;
18796;SDS011;9526;52.612;13.300;2022-10-16T00:33:11;3.85;;;3.10;;
18796;SDS011;9526;52.612;13.300;2022-10-16T00:35:35;3.60;;;3.05;;
18796;SDS011;9526;52.612;13.300;2022-10-16T00:37:58;7.95;;;3.45;;
18796;SDS011;9526;52.612;13.300;2022-10-16T00:40:23;3.95;;;3.10;;
18796;SDS011;9526;52.612;13.300;2022-10-16T00:42:47;3.17;;;2.88;;
18796;SDS011;9526;52.612;13.300;2022-10-16T00:45:11;3.63;;;2.58;;
18796;SDS011;9526;52.612;13.300;2022-10-16T00:47:35;5.22;;;2.65;;
18796;SDS011;9526;52.612;13.300;2022-10-16T00:50:02;3.60;;;2.70;;
18796;SDS011;9526;52.612;13.300;2022-10-16T00:52:32;2.92;;;2.55;;
18796;SDS011;9526;52.612;13.300;2022-10-16T00:54:55;3.72;;;2.80;;
18796;SDS011;9526;52.612;13.300;2022-10-16T00:57:21;4.03;;;2.88;;
18796;SDS011;9526;52.612;13.300;2022-10-16T00:59:45;3.42;;;2.65;;
18796;SDS011;9526;52.612;13.300;2022-10-16T01:02:10;4.22;;;2.60;;
18796;SDS011;9526;52.612;13.300;2022-10-16T01:04:37;2.63;;;2.22;;
18796;SDS011;9526;52.612;13.300;2022-10-16T01:07:06;2.78;;;2.38;;
18796;SDS011;9526;52.612;13.300;2022-10-16T01:09:37;2.40;;;2.20;;
18796;SDS011;9526;52.612;13.300;2022-10-16T01:12:14;2.90;;;2.33;;
18796;SDS011;9526;52.612;13.300;2022-10-16T01:14:47;3.03;;;2.28;;
18796;SDS011;9526;52.612;13.300;2022-10-16T01:17:17;2.20;;;2.00;;
18796;SDS011;9526;52.612;13.300;2022-10-16T01:20:03;3.97;;;2.45;;
18796;SDS011;9526;52.612;13.300;2022-10-16T01:22:37;2.85;;;2.15;;
18796;SDS011;9526;52.612;13.300;2022-10-16T01:25:09;4.63;;;2.67;;
18796;SDS011;9526;52.612;13.300;2022-10-16T01:27:41;2.88;;;2.30;;
18796;SDS011;9526;52.612;13.300;2022-10-16T01:30:10;4.30;;;2.42;;
18796;SDS011;9526;52.612;13.300;2022-10-16T01:32:40;2.42;;;2.17;;
18796;SDS011;9526;52.612;13.300;2022-10-16T01:35:07;3.05;;;2.55;;
18796;SDS011;9526;52.612;13.300;2022-10-16T01:37:38;2.67;;;2.40;;
18796;SDS011;9526;52.612;13.300;2022-10-16T01:40:11;5.05;;;2.40;;
18796;SDS011;9526;52.612;13.300;2022-10-16T01:42:39;4.07;;;2.80;;
18796;SDS011;9526;52.612;13.300;2022-10-16T01:45:11;2.80;;;2.13;;
18796;SDS011;9526;52.612;13.300;2022-10-16T01:47:39;3.55;;;2.33;;
18796;SDS011;9526;52.612;13.300;2022-10-16T01:50:05;2.85;;;2.17;;
18796;SDS011;9526;52.612;13.300;2022-10-16T01:52:31;2.88;;;2.25;;
18796;SDS011;9526;52.612;13.300;2022-10-16T01:54:57;3.15;;;2.38;;
18796;SDS011;9526;52.612;13.300;2022-10-16T01:57:24;3.55;;;2.58;;
18796;SDS011;9526;52.612;13.300;2022-10-16T01:59:51;2.53;;;2.20;;
18796;SDS011;9526;52.612;13.300;2022-10-16T02:02:19;4.53;;;2.70;;
18796;SDS011;9526;52.612;13.300;2022-10-16T02:04:46;2.90;;;2.28;;
18796;SDS011;9526;52.612;13.300;2022-10-16T02:07:13;4.32;;;2.22;;
18796;SDS011;9526;52.612;13.300;2022-10-16T02:09:37;3.53;;;2.25;;
18796;SDS011;9526;52.612;13.300;2022-10-16T02:12:03;3.28;;;2.20;;
18796;SDS011;9526;52.612;13.300;2022-10-16T02:14:35;2.50;;;2.30;;
18796;SDS011;9526;52.612;13.300;2022-10-16T02:17:09;2.53;;;2.20;;
18796;SDS011;9526;52.612;13.300;2022-10-16T02:19:35;2.17;;;1.98;;
18796;SDS011;9526;52.612;13.300;2022-10-16T02:22:04;3.35;;;2.45;;
18796;SDS011;9526;52.612;13.300;2022-10-16T02:24:32;2.13;;;1.92;;
18796;SDS011;9526;52.612;13.300;2022-10-16T02:27:03;3.42;;;2.13;;
18796;SDS011;9526;52.612;13.300;2022-10-16T02:29:33;4.25;;;2.40;;
18796;SDS011;9526;52.612;13.300;2022-10-16T02:32:07;2.35;;;2.13;;
18796;SDS011;9526;52.612;13.300;2022-10-16T02:34:33;4.47;;;2.10;;
18796;SDS011;9526;52.612;13.300;2022-10-16T02:36:58;3.33;;;2.45;;
18796;SDS011;9526;52.612;13.300;2022-10-16T02:39:24;3.38;;;2.10;;
18796;SDS011;9526;52.612;13.300;2022-10-16T02:41:50;4.70;;;2.50;;
18796;SDS011;9526;52.612;13.300;2022-10-16T02:44:13;3.50;;;1.90;;
18796;SDS011;9526;52.612;13.300;2022-10-16T02:46:37;2.78;;;2.03;;
18796;SDS011;9526;52.612;13.300;2022-10-16T02:49:02;4.65;;;2.40;;
18796;SDS011;9526;52.612;13.300;2022-10-16T02:51:26;2.38;;;2.17;;
18796;SDS011;9526;52.612;13.300;2022-10-16T02:53:49;3.00;;;2.20;;
18796;SDS011;9526;52.612;13.300;2022-10-16T02:56:13;4.30;;;2.30;;
18796;SDS011;9526;52.612;13.300;2022-10-16T02:58:37;5.72;;;2.20;;
18796;SDS011;9526;52.612;13.300;2022-10-16T03:01:00;2.72;;;2.45;;
18796;SDS011;9526;52.612;13.300;2022-10-16T03:03:24;2.28;;;2.08;;
18796;SDS011;9526;52.612;13.300;2022-10-16T03:05:49;7.22;;;2.20;;
18796;SDS011;9526;52.612;13.300;2022-10-16T03:08:13;2.20;;;2.00;;
18796;SDS011;9526;52.612;13.300;2022-10-16T03:10:37;2.83;;;2.30;;
18796;SDS011;9526;52.612;13.300;2022-10-16T03:13:01;2.80;;;2.10;;
18796;SDS011;9526;52.612;13.300;2022-10-16T03:15:24;3.40;;;2.47;;
18796;SDS011;9526;52.612;13.300;2022-10-16T03:17:49;2.50;;;2.30;;
18796;SDS011;9526;52.612;13.300;2022-10-16T03:20:13;3.58;;;2.30;;
18796;SDS011;9526;52.612;13.300;2022-10-16T03:22:38;2.53;;;2.33;;
18796;SDS011;9526;52.612;13.300;2022-10-16T03:25:02;2.70;;;2.17;;
18796;SDS011;9526;52.612;13.300;2022-10-16T03:27:26;4.72;;;2.60;;
18796;SDS011;9526;52.612;13.300;2022-10-16T03:29:50;3.42;;;2.30;;
18796;SDS011;9526;52.612;13.300;2022-10-16T03:32:14;3.28;;;2.15;;
18796;SDS011;9526;52.612;13.300;2022-10-16T03:34:37;2.97;;;2.28;;
18796;SDS011;9526;52.612;13.300;2022-10-16T03:37:01;4.40;;;2.40;;
18796;SDS011;9526;52.612;13.300;2022-10-16T03:39:26;3.63;;;2.42;;
18796;SDS011;9526;52.612;13.300;2022-10-16T03:41:50;2.60;;;2.40;;
18796;SDS011;9526;52.612;13.300;2022-10-16T03:44:13;3.15;;;2.60;;
18796;SDS011;9526;52.612;13.300;2022-10-16T03:46:37;6.00;;;2.30;;
18796;SDS011;9526;52.612;13.300;2022-10-16T03:49:01;2.45;;;2.22;;
18796;SDS011;9526;52.612;13.300;2022-10-16T03:51:29;3.10;;;2.70;;
18796;SDS011;9526;52.612;13.300;2022-10-16T03:53:53;3.92;;;2.60;;
18796;SDS011;9526;52.612;13.300;2022-10-16T03:56:17;2.88;;;2.60;;
18796;SDS011;9526;52.612;13.300;2022-10-16T03:58:41;2.88;;;2.58;;
18796;SDS011;9526;52.612;13.300;2022-10-16T04:01:05;6.47;;;2.50;;
18796;SDS011;9526;52.612;13.300;2022-10-16T04:03:28;3.42;;;2.78;;
18796;SDS011;9526;52.612;13.300;2022-10-16T04:05:52;2.78;;;2.53;;
18796;SDS011;9526;52.612;13.300;2022-10-16T04:08:16;5.72;;;2.90;;
18796;SDS011;9526;52.612;13.300;2022-10-16T04:10:39;3.00;;;2.70;;
18796;SDS011;9526;52.612;13.300;2022-10-16T04:13:06;3.00;;;2.63;;
18796;SDS011;9526;52.612;13.300;2022-10-16T04:15:30;4.10;;;2.47;;
18796;SDS011;9526;52.612;13.300;2022-10-16T04:17:53;5.00;;;2.50;;
18796;SDS011;9526;52.612;13.300;2022-10-16T04:20:17;4.05;;;2.60;;
18796;SDS011;9526;52.612;13.300;2022-10-16T04:22:41;2.97;;;2.35;;
18796;SDS011;9526;52.612;13.300;2022-10-16T04:25:05;3.50;;;2.92;;
18796;SDS011;9526;52.612;13.300;2022-10-16T04:27:29;7.18;;;2.67;;
18796;SDS011;9526;52.612;13.300;2022-10-16T04:29:54;5.15;;;3.00;;
18796;SDS011;9526;52.612;13.300;2022-10-16T04:32:17;3.28;;;2.88;;
18796;SDS011;9526;52.612;13.300;2022-10-16T04:34:41;4.07;;;3.05;;
18796;SDS011;9526;52.612;13.300;2022-10-16T04:37:04;4.05;;;3.13;;
18796;SDS011;9526;52.612;13.300;2022-10-16T04:39:28;3.92;;;3.22;;
18796;SDS011;9526;52.612;13.300;2022-10-16T04:41:52;4.10;;;2.88;;
18796;SDS011;9526;52.612;13.300;2022-10-16T04:44:15;5.10;;;3.10;;
18796;SDS011;9526;52.612;13.300;2022-10-16T04:46:40;5.72;;;3.00;;
18796;SDS011;9526;52.612;13.300;2022-10-16T04:49:04;3.53;;;3.22;;
18796;SDS011;9526;52.612;13.300;2022-10-16T04:51:27;4.57;;;3.05;;
18796;SDS011;9526;52.612;13.300;2022-10-16T04:53:51;5.82;;;3.15;;
18796;SDS011;9526;52.612;13.300;2022-10-16T04:56:15;6.25;;;3.25;;
18796;SDS011;9526;52.612;13.300;2022-10-16T04:58:39;5.22;;;3.22;;
18796;SDS011;9526;52.612;13.300;2022-10-16T05:01:02;4.43;;;3.13;;
18796;SDS011;9526;52.612;13.300;2022-10-16T05:03:28;4.75;;;3.05;;
18796;SDS011;9526;52.612;13.300;2022-10-16T05:05:56;5.55;;;3.70;;
18796;SDS011;9526;52.612;13.300;2022-10-16T05:08:20;6.90;;;3.67;;
18796;SDS011;9526;52.612;13.300;2022-10-16T05:10:44;5.53;;;3.90;;
18796;SDS011;9526;52.612;13.300;2022-10-16T05:13:08;6.82;;;3.72;;
18796;SDS011;9526;52.612;13.300;2022-10-16T05:15:32;4.20;;;3.60;;
18796;SDS011;9526;52.612;13.300;2022-10-16T05:17:55;6.13;;;3.45;;
18796;SDS011;9526;52.612;13.300;2022-10-16T05:20:20;4.30;;;3.10;;
18796;SDS011;9526;52.612;13.300;2022-10-16T05:22:45;5.13;;;3.65;;
18796;SDS011;9526;52.612;13.300;2022-10-16T05:25:08;5.95;;;4.03;;
18796;SDS011;9526;52.612;13.300;2022-10-16T05:27:32;3.95;;;3.38;;
18796;SDS011;9526;52.612;13.300;2022-10-16T05:29:55;9.20;;;3.58;;
18796;SDS011;9526;52.612;13.300;2022-10-16T05:32:19;4.75;;;3.65;;
18796;SDS011;9526;52.612;13.300;2022-10-16T05:34:42;6.43;;;4.45;;
18796;SDS011;9526;52.612;13.300;2022-10-16T05:37:08;4.53;;;3.55;;
18796;SDS011;9526;52.612;13.300;2022-10-16T05:39:32;4.78;;;3.13;;
18796;SDS011;9526;52.612;13.300;2022-10-16T05:41:58;4.80;;;4.10;;
18796;SDS011;9526;52.612;13.300;2022-10-16T05:44:21;7.03;;;3.92;;
18796;SDS011;9526;52.612;13.300;2022-10-16T05:46:45;5.60;;;3.85;;
18796;SDS011;9526;52.612;13.300;2022-10-16T05:49:09;5.65;;;3.88;;
18796;SDS011;9526;52.612;13.300;2022-10-16T05:51:32;5.30;;;4.05;;
18796;SDS011;9526;52.612;13.300;2022-10-16T05:53:57;4.63;;;3.67;;
18796;SDS011;9526;52.612;13.300;2022-10-16T05:56:21;8.45;;;3.70;;
18796;SDS011;9526;52.612;13.300;2022-10-16T05:58:45;5.40;;;3.80;;
18796;SDS011;9526;52.612;13.300;2022-10-16T06:01:09;4.55;;;3.90;;
18796;SDS011;9526;52.612;13.300;2022-10-16T06:03:35;5.40;;;4.00;;
18796;SDS011;9526;52.612;13.300;2022-10-16T06:05:58;4.28;;;3.88;;
18796;SDS011;9526;52.612;13.300;2022-10-16T06:08:33;8.23;;;4.65;;
18796;SDS011;9526;52.612;13.300;2022-10-16T06:11:04;7.68;;;4.40;;
18796;SDS011;9526;52.612;13.300;2022-10-16T06:13:29;6.15;;;4.63;;
18796;SDS011;9526;52.612;13.300;2022-10-16T06:15:53;5.28;;;4.15;;
18796;SDS011;9526;52.612;13.300;2022-10-16T06:18:19;7.60;;;4.38;;
18796;SDS011;9526;52.612;13.300;2022-10-16T06:20:43;7.25;;;4.60;;
18796;SDS011;9526;52.612;13.300;2022-10-16T06:23:07;7.10;;;4.30;;
18796;SDS011;9526;52.612;13.300;2022-10-16T06:25:30;8.40;;;4.32;;
18796;SDS011;9526;52.612;13.300;2022-10-16T06:27:55;4.70;;;3.90;;
18796;SDS011;9526;52.612;13.300;2022-10-16T06:30:19;8.10;;;3.78;;
18796;SDS011;9526;52.612;13.300;2022-10-16T06:32:43;5.43;;;3.80;;
18796;SDS011;9526;52.612;13.300;2022-10-16T06:35:07;5.13;;;3.85;;
18796;SDS011;9526;52.612;13.300;2022-10-16T06:37:31;6.10;;;3.60;;
18796;SDS011;9526;52.612;13.300;2022-10-16T06:39:54;4.82;;;3.65;;
18796;SDS011;9526;52.612;13.300;2022-10-16T06:42:18;4.32;;;3.90;;
18796;SDS011;9526;52.612;13.300;2022-10-16T06:44:43;4.18;;;3.58;;
18796;SDS011;9526;52.612;13.300;2022-10-16T06:47:07;6.93;;;3.08;;
18796;SDS011;9526;52.612;13.300;2022-10-16T06:49:30;6.82;;;3.17;;
18796;SDS011;9526;52.612;13.300;2022-10-16T06:51:54;3.65;;;3.20;;
18796;SDS011;9526;52.612;13.300;2022-10-16T06:54:17;4.43;;;3.20;;
18796;SDS011;9526;52.612;13.300;2022-10-16T06:56:41;3.60;;;2.80;;
18796;SDS011;9526;52.612;13.300;2022-10-16T06:59:05;3.63;;;2.53;;
18796;SDS011;9526;52.612;13.300;2022-10-16T07:01:30;3.78;;;2.90;;
18796;SDS011;9526;52.612;13.300;2022-10-16T07:03:53;3.55;;;2.50;;
18796;SDS011;9526;52.612;13.300;2022-10-16T07:06:18;5.05;;;2.75;;
18796;SDS011;9526;52.612;13.300;2022-10-16T07:08:44;4.22;;;2.72;;
18796;SDS011;9526;52.612;13.300;2022-10-16T07:11:09;4.47;;;2.95;;
18796;SDS011;9526;52.612;13.300;2022-10-16T07:13:35;5.10;;;2.83;;
18796;SDS011;9526;52.612;13.300;2022-10-16T07:16:03;5.03;;;2.80;;
18796;SDS011;9526;52.612;13.300;2022-10-16T07:18:29;3.00;;;2.70;;
18796;SDS011;9526;52.612;13.300;2022-10-16T07:21:02;3.05;;;2.70;;
18796;SDS011;9526;52.612;13.300;2022-10-16T07:23:27;7.70;;;2.70;;
18796;SDS011;9526;52.612;13.300;2022-10-16T07:25:53;3.30;;;2.58;;
18796;SDS011;9526;52.612;13.300;2022-10-16T07:28:17;3.30;;;2.83;;
18796;SDS011;9526;52.612;13.300;2022-10-16T07:30:41;3.03;;;2.53;;
18796;SDS011;9526;52.612;13.300;2022-10-16T07:33:04;7.25;;;2.30;;
18796;SDS011;9526;52.612;13.300;2022-10-16T07:35:29;3.75;;;2.50;;
18796;SDS011;9526;52.612;13.300;2022-10-16T07:37:53;3.25;;;2.50;;
18796;SDS011;9526;52.612;13.300;2022-10-16T07:40:17;3.75;;;2.53;;
18796;SDS011;9526;52.612;13.300;2022-10-16T07:42:41;4.05;;;2.20;;
18796;SDS011;9526;52.612;13.300;2022-10-16T07:45:05;3.55;;;2.78;;
18796;SDS011;9526;52.612;13.300;2022-10-16T07:47:29;2.85;;;2.40;;
18796;SDS011;9526;52.612;13.300;2022-10-16T07:49:53;2.30;;;2.10;;
18796;SDS011;9526;52.612;13.300;2022-10-16T07:52:18;2.75;;;2.20;;
18796;SDS011;9526;52.612;13.300;2022-10-16T07:54:42;5.88;;;2.65;;
18796;SDS011;9526;52.612;13.300;2022-10-16T07:57:06;4.60;;;2.50;;
18796;SDS011;9526;52.612;13.300;2022-10-16T07:59:29;3.15;;;2.10;;
18796;SDS011;9526;52.612;13.300;2022-10-16T08:01:53;2.30;;;2.10;;
18796;SDS011;9526;52.612;13.300;2022-10-16T08:04:17;7.15;;;2.20;;
18796;SDS011;9526;52.612;13.300;2022-10-16T08:06:41;2.80;;;2.22;;
18796;SDS011;9526;52.612;13.300;2022-10-16T08:09:06;4.70;;;2.42;;
18796;SDS011;9526;52.612;13.300;2022-10-16T08:11:31;2.45;;;2.10;;
18796;SDS011;9526;52.612;13.300;2022-10-16T08:13:55;4.82;;;2.10;;
18796;SDS011;9526;52.612;13.300;2022-10-16T08:16:18;7.57;;;1.98;;
18796;SDS011;9526;52.612;13.300;2022-10-16T08:18:42;1.65;;;1.55;;
18796;SDS011;9526;52.612;13.300;2022-10-16T08:21:06;2.70;;;2.00;;
18796;SDS011;9526;52.612;13.300;2022-10-16T08:23:41;1.85;;;1.75;;
18796;SDS011;9526;52.612;13.300;2022-10-16T08:26:07;1.75;;;1.65;;
18796;SDS011;9526;52.612;13.300;2022-10-16T08:28:31;4.55;;;2.08;;
18796;SDS011;9526;52.612;13.300;2022-10-16T08:30:55;3.38;;;2.00;;
18796;SDS011;9526;52.612;13.300;2022-10-16T08:33:19;2.20;;;1.63;;
18796;SDS011;9526;52.612;13.300;2022-10-16T08:35:42;3.33;;;1.85;;
18796;SDS011;9526;52.612;13.300;2022-10-16T08:38:14;2.25;;;2.00;;
18796;SDS011;9526;52.612;13.300;2022-10-16T08:40:37;2.20;;;1.50;;
18796;SDS011;9526;52.612;13.300;2022-10-16T08:43:09;5.35;;;1.70;;
18796;SDS011;9526;52.612;13.300;2022-10-16T08:45:55;1.83;;;1.70;;
18796;SDS011;9526;52.612;13.300;2022-10-16T08:48:40;1.70;;;1.60;;
18796;SDS011;9526;52.612;13.300;2022-10-16T08:51:18;1.67;;;1.58;;
18796;SDS011;9526;52.612;13.300;2022-10-16T08:53:46;2.97;;;1.90;;
18796;SDS011;9526;52.612;13.300;2022-10-16T08:56:15;2.58;;;1.50;;
18796;SDS011;9526;52.612;13.300;2022-10-16T08:58:41;1.75;;;1.63;;
18796;SDS011;9526;52.612;13.300;2022-10-16T09:01:10;2.45;;;1.52;;
18796;SDS011;9526;52.612;13.300;2022-10-16T09:03:40;1.77;;;1.60;;
18796;SDS011;9526;52.612;13.300;2022-10-16T09:06:38;2.47;;;1.38;;
18796;SDS011;9526;52.612;13.300;2022-10-16T09:09:15;2.88;;;1.88;;
18796;SDS011;9526;52.612;13.300;2022-10-16T09:11:57;4.22;;;1.77;;
18796;SDS011;9526;52.612;13.300;2022-10-16T09:14:34;1.90;;;1.60;;
18796;SDS011;9526;52.612;13.300;2022-10-16T09:17:12;1.55;;;1.45;;
18796;SDS011;9526;52.612;13.300;2022-10-16T09:19:51;1.42;;;1.30;;
18796;SDS011;9526;52.612;13.300;2022-10-16T09:22:19;5.38;;;1.70;;
18796;SDS011;9526;52.612;13.300;2022-10-16T09:24:49;1.70;;;1.42;;
18796;SDS011;9526;52.612;13.300;2022-10-16T09:27:13;2.10;;;1.65;;
18796;SDS011;9526;52.612;13.300;2022-10-16T09:29:39;2.83;;;1.73;;
18796;SDS011;9526;52.612;13.300;2022-10-16T09:32:07;2.25;;;1.52;;
18796;SDS011;9526;52.612;13.300;2022-10-16T09:34:39;2.20;;;1.58;;
18796;SDS011;9526;52.612;13.300;2022-10-16T09:37:09;3.03;;;1.40;;
18796;SDS011;9526;52.612;13.300;2022-10-16T09:39:43;2.38;;;1.52;;
18796;SDS011;9526;52.612;13.300;2022-10-16T09:42:09;3.38;;;1.60;;
18796;SDS011;9526;52.612;13.300;2022-10-16T09:44:36;2.25;;;1.60;;
18796;SDS011;9526;52.612;13.300;2022-10-16T09:47:12;4.50;;;1.50;;
18796;SDS011;9526;52.612;13.300;2022-10-16T09:49:42;4.82;;;1.33;;
18796;SDS011;9526;52.612;13.300;2022-10-16T09:52:15;3.60;;;1.38;;
18796;SDS011;9526;52.612;13.300;2022-10-16T09:54:48;1.45;;;1.35;;
18796;SDS011;9526;52.612;13.300;2022-10-16T09:57:13;1.50;;;1.40;;
18796;SDS011;9526;52.612;13.300;2022-10-16T09:59:46;1.95;;;1.33;;
18796;SDS011;9526;52.612;13.300;2022-10-16T10:02:11;2.35;;;1.50;;
18796;SDS011;9526;52.612;13.300;2022-10-16T10:04:38;1.20;;;1.10;;
18796;SDS011;9526;52.612;13.300;2022-10-16T10:07:07;2.53;;;1.40;;
18796;SDS011;9526;52.612;13.300;2022-10-16T10:09:42;1.88;;;1.30;;
18796;SDS011;9526;52.612;13.300;2022-10-16T10:12:14;4.40;;;1.45;;
18796;SDS011;9526;52.612;13.300;2022-10-16T10:14:48;4.72;;;1.27;;
18796;SDS011;9526;52.612;13.300;2022-10-16T10:17:16;4.03;;;1.38;;
18796;SDS011;9526;52.612;13.300;2022-10-16T10:19:43;2.33;;;1.50;;
18796;SDS011;9526;52.612;13.300;2022-10-16T10:22:17;4.10;;;1.30;;
18796;SDS011;9526;52.612;13.300;2022-10-16T10:25:12;2.58;;;1.10;;
18796;SDS011;9526;52.612;13.300;2022-10-16T10:28:17;4.05;;;1.30;;
18796;SDS011;9526;52.612;13.300;2022-10-16T10:30:54;2.55;;;1.15;;
18796;SDS011;9526;52.612;13.300;2022-10-16T10:33:25;3.03;;;1.17;;
18796;SDS011;9526;52.612;13.300;2022-10-16T10:36:02;1.85;;;1.23;;
18796;SDS011;9526;52.612;13.300;2022-10-16T10:38:39;3.42;;;1.27;;
18796;SDS011;9526;52.612;13.300;2022-10-16T10:44:54;1.33;;;1.20;;
18796;SDS011;9526;52.612;13.300;2022-10-16T10:47:38;3.35;;;1.10;;
18796;SDS011;9526;52.612;13.300;2022-10-16T10:50:12;1.58;;;1.25;;
18796;SDS011;9526;52.612;13.300;2022-10-16T10:52:49;2.67;;;1.25;;
18796;SDS011;9526;52.612;13.300;2022-10-16T10:55:23;5.20;;;1.52;;
18796;SDS011;9526;52.612;13.300;2022-10-16T10:58:00;2.03;;;1.42;;
18796;SDS011;9526;52.612;13.300;2022-10-16T11:00:41;1.67;;;1.08;;
18796;SDS011;9526;52.612;13.300;2022-10-16T11:03:17;1.58;;;1.10;;
18796;SDS011;9526;52.612;13.300;2022-10-16T11:05:58;3.40;;;1.30;;
18796;SDS011;9526;52.612;13.300;2022-10-16T11:08:29;3.45;;;1.30;;
18796;SDS011;9526;52.612;13.300;2022-10-16T11:10:59;1.88;;;1.20;;
18796;SDS011;9526;52.612;13.300;2022-10-16T11:13:29;1.40;;;1.30;;
18796;SDS011;9526;52.612;13.300;2022-10-16T11:15:57;1.42;;;1.20;;
18796;SDS011;9526;52.612;13.300;2022-10-16T11:18:27;4.40;;;1.30;;
18796;SDS011;9526;52.612;13.300;2022-10-16T11:21:06;1.85;;;1.15;;
18796;SDS011;9526;52.612;13.300;2022-10-16T11:23:34;1.27;;;1.10;;
18796;SDS011;9526;52.612;13.300;2022-10-16T11:26:05;1.42;;;1.00;;
18796;SDS011;9526;52.612;13.300;2022-10-16T11:28:38;1.20;;;1.10;;
18796;SDS011;9526;52.612;13.300;2022-10-16T11:31:10;1.50;;;1.00;;
18796;SDS011;9526;52.612;13.300;2022-10-16T11:33:41;2.72;;;1.10;;
18796;SDS011;9526;52.612;13.300;2022-10-16T11:36:11;2.25;;;1.20;;
18796;SDS011;9526;52.612;13.300;2022-10-16T11:38:41;1.77;;;1.05;;
18796;SDS011;9526;52.612;13.300;2022-10-16T11:41:15;1.50;;;1.00;;
18796;SDS011;9526;52.612;13.300;2022-10-16T11:43:46;1.02;;;0.98;;
18796;SDS011;9526;52.612;13.300;2022-10-16T11:46:20;1.00;;;0.90;;
18796;SDS011;9526;52.612;13.300;2022-10-16T11:48:49;1.55;;;1.00;;
18796;SDS011;9526;52.612;13.300;2022-10-16T11:51:19;2.67;;;0.98;;
18796;SDS011;9526;52.612;13.300;2022-10-16T11:53:51;4.43;;;1.30;;
18796;SDS011;9526;52.612;13.300;2022-10-16T11:56:21;2.28;;;1.60;;
18796;SDS011;9526;52.612;13.300;2022-10-16T11:58:49;2.90;;;1.63;;
18796;SDS011;9526;52.612;13.300;2022-10-16T12:01:19;2.63;;;1.00;;
18796;SDS011;9526;52.612;13.300;2022-10-16T12:03:59;2.33;;;1.00;;
18796;SDS011;9526;52.612;13.300;2022-10-16T12:06:39;4.28;;;1.00;;
18796;SDS011;9526;52.612;13.300;2022-10-16T12:09:09;3.25;;;1.20;;
18796;SDS011;9526;52.612;13.300;2022-10-16T12:11:39;1.73;;;1.30;;
18796;SDS011;9526;52.612;13.300;2022-10-16T12:17:23;1.65;;;1.20;;
18796;SDS011;9526;52.612;13.300;2022-10-16T12:19:58;3.35;;;1.10;;
18796;SDS011;9526;52.612;13.300;2022-10-16T12:22:23;1.88;;;1.15;;
18796;SDS011;9526;52.612;13.300;2022-10-16T12:24:50;3.45;;;1.95;;
18796;SDS011;9526;52.612;13.300;2022-10-16T12:27:20;1.63;;;0.70;;
18796;SDS011;9526;52.612;13.300;2022-10-16T12:29:54;1.90;;;1.38;;
18796;SDS011;9526;52.612;13.300;2022-10-16T12:32:22;3.97;;;0.90;;
18796;SDS011;9526;52.612;13.300;2022-10-16T12:35:17;2.88;;;0.88;;
18796;SDS011;9526;52.612;13.300;2022-10-16T12:37:44;2.47;;;0.77;;
18796;SDS011;9526;52.612;13.300;2022-10-16T12:40:12;1.15;;;0.70;;
18796;SDS011;9526;52.612;13.300;2022-10-16T12:42:38;4.68;;;0.80;;
18796;SDS011;9526;52.612;13.300;2022-10-16T12:45:12;1.10;;;0.80;;
18796;SDS011;9526;52.612;13.300;2022-10-16T12:47:48;1.42;;;0.93;;
18796;SDS011;9526;52.612;13.300;2022-10-16T12:50:26;1.02;;;0.70;;
18796;SDS011;9526;52.612;13.300;2022-10-16T12:52:54;4.63;;;0.95;;
18796;SDS011;9526;52.612;13.300;2022-10-16T12:55:18;1.40;;;0.70;;
18796;SDS011;9526;52.612;13.300;2022-10-16T12:57:45;1.95;;;0.90;;
18796;SDS011;9526;52.612;13.300;2022-10-16T13:00:32;1.98;;;0.73;;
18796;SDS011;9526;52.612;13.300;2022-10-16T13:06:35;2.15;;;0.70;;
18796;SDS011;9526;52.612;13.300;2022-10-16T13:09:20;1.25;;;0.88;;
18796;SDS011;9526;52.612;13.300;2022-10-16T13:12:18;5.07;;;0.88;;
18796;SDS011;9526;52.612;13.300;2022-10-16T13:15:21;2.85;;;0.60;;
18796;SDS011;9526;52.612;13.300;2022-10-16T13:17:59;1.20;;;0.80;;
18796;SDS011;9526;52.612;13.300;2022-10-16T13:20:30;0.70;;;0.70;;
18796;SDS011;9526;52.612;13.300;2022-10-16T13:23:02;2.13;;;0.77;;
18796;SDS011;9526;52.612;13.300;2022-10-16T13:25:40;1.58;;;1.10;;
18796;SDS011;9526;52.612;13.300;2022-10-16T13:28:21;1.00;;;0.80;;
18796;SDS011;9526;52.612;13.300;2022-10-16T13:30:51;3.33;;;0.90;;
18796;SDS011;9526;52.612;13.300;2022-10-16T13:33:17;1.10;;;0.88;;
18796;SDS011;9526;52.612;13.300;2022-10-16T13:35:47;1.33;;;0.70;;
18796;SDS011;9526;52.612;13.300;2022-10-16T13:38:15;1.27;;;0.70;;
18796;SDS011;9526;52.612;13.300;2022-10-16T13:40:48;1.35;;;0.75;;
18796;SDS011;9526;52.612;13.300;2022-10-16T13:43:14;1.77;;;1.00;;
18796;SDS011;9526;52.612;13.300;2022-10-16T13:45:39;1.17;;;0.70;;
18796;SDS011;9526;52.612;13.300;2022-10-16T13:48:03;1.13;;;0.82;;
18796;SDS011;9526;52.612;13.300;2022-10-16T13:50:29;1.52;;;0.70;;
18796;SDS011;9526;52.612;13.300;2022-10-16T13:52:54;1.85;;;0.60;;
18796;SDS011;9526;52.612;13.300;2022-10-16T13:55:28;0.77;;;0.60;;
18796;SDS011;9526;52.612;13.300;2022-10-16T13:57:53;0.73;;;0.60;;
18796;SDS011;9526;52.612;13.300;2022-10-16T14:00:28;0.55;;;0.55;;
18796;SDS011;9526;52.612;13.300;2022-10-16T14:02:55;0.77;;;0.50;;
18796;SDS011;9526;52.612;13.300;2022-10-16T14:05:23;2.45;;;0.50;;
18796;SDS011;9526;52.612;13.300;2022-10-16T14:07:48;0.50;;;0.50;;
18796;SDS011;9526;52.612;13.300;2022-10-16T14:10:18;0.63;;;0.47;;
18796;SDS011;9526;52.612;13.300;2022-10-16T14:12:52;2.70;;;0.63;;
18796;SDS011;9526;52.612;13.300;2022-10-16T14:15:18;1.98;;;0.60;;
18796;SDS011;9526;52.612;13.300;2022-10-16T14:17:43;1.00;;;0.70;;
18796;SDS011;9526;52.612;13.300;2022-10-16T14:20:13;0.60;;;0.60;;
18796;SDS011;9526;52.612;13.300;2022-10-16T14:22:38;1.27;;;0.60;;
18796;SDS011;9526;52.612;13.300;2022-10-16T14:25:26;2.92;;;0.70;;
18796;SDS011;9526;52.612;13.300;2022-10-16T14:27:58;2.05;;;0.80;;
18796;SDS011;9526;52.612;13.300;2022-10-16T14:30:25;1.13;;;0.80;;
18796;SDS011;9526;52.612;13.300;2022-10-16T14:32:53;1.25;;;0.60;;
18796;SDS011;9526;52.612;13.300;2022-10-16T14:35:22;1.58;;;0.52;;
18796;SDS011;9526;52.612;13.300;2022-10-16T14:37:51;1.20;;;0.95;;
18796;SDS011;9526;52.612;13.300;2022-10-16T14:40:16;2.53;;;0.85;;
18796;SDS011;9526;52.612;13.300;2022-10-16T14:42:42;4.20;;;1.30;;
18796;SDS011;9526;52.612;13.300;2022-10-16T14:45:09;0.75;;;0.75;;
18796;SDS011;9526;52.612;13.300;2022-10-16T14:47:33;0.60;;;0.60;;
18796;SDS011;9526;52.612;13.300;2022-10-16T14:49:57;2.67;;;0.82;;
18796;SDS011;9526;52.612;13.300;2022-10-16T14:52:21;0.60;;;0.60;;
18796;SDS011;9526;52.612;13.300;2022-10-16T14:54:47;1.20;;;0.70;;
18796;SDS011;9526;52.612;13.300;2022-10-16T14:57:16;0.55;;;0.55;;
18796;SDS011;9526;52.612;13.300;2022-10-16T14:59:41;2.80;;;0.73;;
18796;SDS011;9526;52.612;13.300;2022-10-16T15:02:09;1.33;;;0.85;;
18796;SDS011;9526;52.612;13.300;2022-10-16T15:04:45;3.40;;;1.20;;